sensor_id;sensor_type;location;lat;lon;timestamp;P1;durP1;ratioP1;P2;durP2;ratioP2
12474;SDS011;6302;42.624;23.334;2023-11-18T00:02:19;1.50;;;1.40;;
12474;SDS011;6302;42.624;23.334;2023-11-18T00:04:45;1.40;;;1.33;;
12474;SDS011;6302;42.624;23.334;2023-11-18T00:07:12;2.10;;;2.00;;
12474;SDS011;6302;42.624;23.334;2023-11-18T00:09:39;1.67;;;1.57;;
12474;SDS011;6302;42.624;23.334;2023-11-18T00:12:08;1.37;;;1.37;;
12474;SDS011;6302;42.624;23.334;2023-11-18T00:14:36;1.63;;;1.63;;
12474;SDS011;6302;42.624;23.334;2023-11-18T00:17:03;1.50;;;1.50;;
12474;SDS011;6302;42.624;23.334;2023-11-18T00:19:30;1.67;;;1.57;;
12474;SDS011;6302;42.624;23.334;2023-11-18T00:21:56;1.67;;;1.57;;
12474;SDS011;6302;42.624;23.334;2023-11-18T00:24:23;1.73;;;1.30;;
12474;SDS011;6302;42.624;23.334;2023-11-18T00:26:50;1.73;;;1.63;;
12474;SDS011;6302;42.624;23.334;2023-11-18T00:29:17;1.67;;;1.57;;
12474;SDS011;6302;42.624;23.334;2023-11-18T00:31:45;1.60;;;1.60;;
12474;SDS011;6302;42.624;23.334;2023-11-18T00:34:12;1.90;;;1.80;;
12474;SDS011;6302;42.624;23.334;2023-11-18T00:36:38;1.80;;;1.77;;
12474;SDS011;6302;42.624;23.334;2023-11-18T00:39:05;1.97;;;1.87;;
12474;SDS011;6302;42.624;23.334;2023-11-18T00:41:32;1.90;;;1.80;;
12474;SDS011;6302;42.624;23.334;2023-11-18T00:43:59;1.37;;;1.33;;
12474;SDS011;6302;42.624;23.334;2023-11-18T00:46:25;1.90;;;1.80;;
12474;SDS011;6302;42.624;23.334;2023-11-18T00:48:53;1.80;;;1.70;;
12474;SDS011;6302;42.624;23.334;2023-11-18T00:51:23;1.90;;;1.80;;
12474;SDS011;6302;42.624;23.334;2023-11-18T00:53:49;1.80;;;1.70;;
12474;SDS011;6302;42.624;23.334;2023-11-18T00:56:19;1.90;;;1.80;;
12474;SDS011;6302;42.624;23.334;2023-11-18T00:58:46;1.70;;;1.60;;
12474;SDS011;6302;42.624;23.334;2023-11-18T01:01:13;2.10;;;2.00;;
12474;SDS011;6302;42.624;23.334;2023-11-18T01:03:43;1.97;;;1.87;;
12474;SDS011;6302;42.624;23.334;2023-11-18T01:06:11;2.23;;;2.10;;
12474;SDS011;6302;42.624;23.334;2023-11-18T01:08:38;2.10;;;2.00;;
12474;SDS011;6302;42.624;23.334;2023-11-18T01:11:05;1.97;;;1.87;;
12474;SDS011;6302;42.624;23.334;2023-11-18T01:13:32;1.97;;;1.87;;
12474;SDS011;6302;42.624;23.334;2023-11-18T01:15:59;2.03;;;1.93;;
12474;SDS011;6302;42.624;23.334;2023-11-18T01:18:25;1.67;;;1.57;;
12474;SDS011;6302;42.624;23.334;2023-11-18T01:20:52;1.37;;;1.33;;
12474;SDS011;6302;42.624;23.334;2023-11-18T01:23:20;1.60;;;1.50;;
12474;SDS011;6302;42.624;23.334;2023-11-18T01:25:47;1.70;;;1.60;;
12474;SDS011;6302;42.624;23.334;2023-11-18T01:28:16;2.00;;;1.90;;
12474;SDS011;6302;42.624;23.334;2023-11-18T01:30:43;2.10;;;2.00;;
12474;SDS011;6302;42.624;23.334;2023-11-18T01:33:10;2.17;;;2.07;;
12474;SDS011;6302;42.624;23.334;2023-11-18T01:35:37;1.70;;;1.60;;
12474;SDS011;6302;42.624;23.334;2023-11-18T01:38:04;2.13;;;2.03;;
12474;SDS011;6302;42.624;23.334;2023-11-18T01:40:34;1.97;;;1.87;;
12474;SDS011;6302;42.624;23.334;2023-11-18T01:43:01;3.20;;;2.30;;
12474;SDS011;6302;42.624;23.334;2023-11-18T01:45:30;3.03;;;2.83;;
12474;SDS011;6302;42.624;23.334;2023-11-18T01:47:56;2.30;;;2.20;;
12474;SDS011;6302;42.624;23.334;2023-11-18T01:50:23;2.67;;;2.47;;
12474;SDS011;6302;42.624;23.334;2023-11-18T01:52:50;2.10;;;2.00;;
12474;SDS011;6302;42.624;23.334;2023-11-18T01:55:18;2.17;;;2.07;;
12474;SDS011;6302;42.624;23.334;2023-11-18T01:57:48;2.10;;;2.00;;
12474;SDS011;6302;42.624;23.334;2023-11-18T02:00:16;2.10;;;2.00;;
12474;SDS011;6302;42.624;23.334;2023-11-18T02:02:43;1.87;;;1.77;;
12474;SDS011;6302;42.624;23.334;2023-11-18T02:05:10;2.27;;;2.17;;
12474;SDS011;6302;42.624;23.334;2023-11-18T02:07:38;2.30;;;2.20;;
12474;SDS011;6302;42.624;23.334;2023-11-18T02:10:05;2.60;;;2.50;;
12474;SDS011;6302;42.624;23.334;2023-11-18T02:12:38;2.43;;;2.33;;
12474;SDS011;6302;42.624;23.334;2023-11-18T02:15:15;2.80;;;2.60;;
12474;SDS011;6302;42.624;23.334;2023-11-18T02:17:43;2.90;;;2.70;;
12474;SDS011;6302;42.624;23.334;2023-11-18T02:20:12;2.60;;;2.50;;
12474;SDS011;6302;42.624;23.334;2023-11-18T02:22:41;2.50;;;2.30;;
12474;SDS011;6302;42.624;23.334;2023-11-18T02:25:09;2.97;;;2.80;;
12474;SDS011;6302;42.624;23.334;2023-11-18T02:27:37;3.20;;;3.00;;
12474;SDS011;6302;42.624;23.334;2023-11-18T02:30:04;2.70;;;2.60;;
12474;SDS011;6302;42.624;23.334;2023-11-18T02:32:39;2.40;;;2.30;;
12474;SDS011;6302;42.624;23.334;2023-11-18T02:35:13;2.47;;;2.37;;
12474;SDS011;6302;42.624;23.334;2023-11-18T02:37:46;3.50;;;3.20;;
12474;SDS011;6302;42.624;23.334;2023-11-18T02:40:19;2.70;;;2.60;;
12474;SDS011;6302;42.624;23.334;2023-11-18T02:42:58;2.63;;;2.53;;
12474;SDS011;6302;42.624;23.334;2023-11-18T02:45:27;2.93;;;2.73;;
12474;SDS011;6302;42.624;23.334;2023-11-18T02:47:55;2.33;;;2.23;;
12474;SDS011;6302;42.624;23.334;2023-11-18T02:50:22;2.30;;;2.20;;
12474;SDS011;6302;42.624;23.334;2023-11-18T02:52:49;2.40;;;2.30;;
12474;SDS011;6302;42.624;23.334;2023-11-18T02:55:16;2.63;;;2.53;;
12474;SDS011;6302;42.624;23.334;2023-11-18T02:57:43;2.37;;;2.27;;
12474;SDS011;6302;42.624;23.334;2023-11-18T03:00:11;2.80;;;2.60;;
12474;SDS011;6302;42.624;23.334;2023-11-18T03:02:43;2.77;;;2.67;;
12474;SDS011;6302;42.624;23.334;2023-11-18T03:05:11;2.33;;;2.23;;
12474;SDS011;6302;42.624;23.334;2023-11-18T03:07:38;3.53;;;3.33;;
12474;SDS011;6302;42.624;23.334;2023-11-18T03:10:05;2.90;;;2.80;;
12474;SDS011;6302;42.624;23.334;2023-11-18T03:12:36;2.83;;;2.63;;
12474;SDS011;6302;42.624;23.334;2023-11-18T03:15:03;2.87;;;2.67;;
12474;SDS011;6302;42.624;23.334;2023-11-18T03:17:33;3.20;;;3.00;;
12474;SDS011;6302;42.624;23.334;2023-11-18T03:20:00;3.67;;;3.37;;
12474;SDS011;6302;42.624;23.334;2023-11-18T03:22:27;3.53;;;3.33;;
12474;SDS011;6302;42.624;23.334;2023-11-18T03:24:54;3.50;;;3.30;;
12474;SDS011;6302;42.624;23.334;2023-11-18T03:27:21;3.10;;;2.90;;
12474;SDS011;6302;42.624;23.334;2023-11-18T03:29:48;3.30;;;3.10;;
12474;SDS011;6302;42.624;23.334;2023-11-18T03:32:15;3.23;;;3.00;;
12474;SDS011;6302;42.624;23.334;2023-11-18T03:34:43;2.70;;;2.60;;
12474;SDS011;6302;42.624;23.334;2023-11-18T03:37:10;2.93;;;2.73;;
12474;SDS011;6302;42.624;23.334;2023-11-18T03:39:36;2.40;;;2.30;;
12474;SDS011;6302;42.624;23.334;2023-11-18T03:42:03;2.97;;;2.77;;
12474;SDS011;6302;42.624;23.334;2023-11-18T03:44:30;3.70;;;3.40;;
12474;SDS011;6302;42.624;23.334;2023-11-18T03:46:57;3.00;;;2.80;;
12474;SDS011;6302;42.624;23.334;2023-11-18T03:49:24;2.83;;;2.63;;
12474;SDS011;6302;42.624;23.334;2023-11-18T03:51:51;3.33;;;3.10;;
12474;SDS011;6302;42.624;23.334;2023-11-18T03:54:18;3.33;;;3.03;;
12474;SDS011;6302;42.624;23.334;2023-11-18T03:56:45;3.43;;;3.23;;
12474;SDS011;6302;42.624;23.334;2023-11-18T03:59:12;3.10;;;2.90;;
12474;SDS011;6302;42.624;23.334;2023-11-18T04:01:38;3.37;;;3.17;;
12474;SDS011;6302;42.624;23.334;2023-11-18T04:04:05;2.90;;;2.70;;
12474;SDS011;6302;42.624;23.334;2023-11-18T04:06:32;3.47;;;3.17;;
12474;SDS011;6302;42.624;23.334;2023-11-18T04:09:00;2.90;;;2.73;;
12474;SDS011;6302;42.624;23.334;2023-11-18T04:11:28;3.57;;;3.37;;
12474;SDS011;6302;42.624;23.334;2023-11-18T04:13:54;3.60;;;3.40;;
12474;SDS011;6302;42.624;23.334;2023-11-18T04:16:21;4.03;;;3.73;;
12474;SDS011;6302;42.624;23.334;2023-11-18T04:18:48;3.63;;;3.43;;
12474;SDS011;6302;42.624;23.334;2023-11-18T04:21:16;3.40;;;3.20;;
12474;SDS011;6302;42.624;23.334;2023-11-18T04:23:43;3.60;;;3.40;;
12474;SDS011;6302;42.624;23.334;2023-11-18T04:26:13;4.50;;;4.20;;
12474;SDS011;6302;42.624;23.334;2023-11-18T04:28:39;3.70;;;3.40;;
12474;SDS011;6302;42.624;23.334;2023-11-18T04:31:06;3.50;;;3.30;;
12474;SDS011;6302;42.624;23.334;2023-11-18T04:33:33;3.80;;;3.50;;
12474;SDS011;6302;42.624;23.334;2023-11-18T04:36:00;3.87;;;3.53;;
12474;SDS011;6302;42.624;23.334;2023-11-18T04:38:27;3.93;;;3.73;;
12474;SDS011;6302;42.624;23.334;2023-11-18T04:40:55;3.93;;;3.63;;
12474;SDS011;6302;42.624;23.334;2023-11-18T04:43:23;3.80;;;3.50;;
12474;SDS011;6302;42.624;23.334;2023-11-18T04:45:50;3.67;;;3.37;;
12474;SDS011;6302;42.624;23.334;2023-11-18T04:48:17;4.30;;;4.00;;
12474;SDS011;6302;42.624;23.334;2023-11-18T04:50:46;3.47;;;3.23;;
12474;SDS011;6302;42.624;23.334;2023-11-18T04:53:13;4.10;;;3.70;;
12474;SDS011;6302;42.624;23.334;2023-11-18T04:55:40;3.87;;;3.63;;
12474;SDS011;6302;42.624;23.334;2023-11-18T04:58:06;3.03;;;2.83;;
12474;SDS011;6302;42.624;23.334;2023-11-18T05:00:35;3.20;;;2.90;;
12474;SDS011;6302;42.624;23.334;2023-11-18T05:03:03;3.00;;;2.80;;
12474;SDS011;6302;42.624;23.334;2023-11-18T05:05:30;3.10;;;2.90;;
12474;SDS011;6302;42.624;23.334;2023-11-18T05:07:57;3.80;;;3.50;;
12474;SDS011;6302;42.624;23.334;2023-11-18T05:10:24;3.00;;;2.80;;
12474;SDS011;6302;42.624;23.334;2023-11-18T05:12:50;3.20;;;3.00;;
12474;SDS011;6302;42.624;23.334;2023-11-18T05:15:21;3.13;;;2.93;;
12474;SDS011;6302;42.624;23.334;2023-11-18T05:17:51;2.77;;;2.57;;
12474;SDS011;6302;42.624;23.334;2023-11-18T05:20:18;3.00;;;2.80;;
12474;SDS011;6302;42.624;23.334;2023-11-18T05:22:46;2.93;;;2.80;;
12474;SDS011;6302;42.624;23.334;2023-11-18T05:25:13;3.10;;;2.90;;
12474;SDS011;6302;42.624;23.334;2023-11-18T05:27:40;2.63;;;2.50;;
12474;SDS011;6302;42.624;23.334;2023-11-18T05:30:08;2.60;;;2.40;;
12474;SDS011;6302;42.624;23.334;2023-11-18T05:32:36;2.63;;;2.43;;
12474;SDS011;6302;42.624;23.334;2023-11-18T05:35:05;2.40;;;2.20;;
12474;SDS011;6302;42.624;23.334;2023-11-18T05:37:32;2.20;;;2.10;;
12474;SDS011;6302;42.624;23.334;2023-11-18T05:40:03;2.57;;;2.37;;
12474;SDS011;6302;42.624;23.334;2023-11-18T05:42:32;3.53;;;2.20;;
12474;SDS011;6302;42.624;23.334;2023-11-18T05:45:01;2.57;;;2.47;;
12474;SDS011;6302;42.624;23.334;2023-11-18T05:47:28;2.50;;;2.40;;
12474;SDS011;6302;42.624;23.334;2023-11-18T05:49:54;2.67;;;2.27;;
12474;SDS011;6302;42.624;23.334;2023-11-18T05:52:22;2.17;;;2.07;;
12474;SDS011;6302;42.624;23.334;2023-11-18T05:54:49;2.60;;;2.50;;
12474;SDS011;6302;42.624;23.334;2023-11-18T05:57:16;2.00;;;1.90;;
12474;SDS011;6302;42.624;23.334;2023-11-18T05:59:43;2.57;;;2.37;;
12474;SDS011;6302;42.624;23.334;2023-11-18T06:02:10;2.20;;;2.10;;
12474;SDS011;6302;42.624;23.334;2023-11-18T06:04:42;2.10;;;2.00;;
12474;SDS011;6302;42.624;23.334;2023-11-18T06:07:09;2.37;;;2.23;;
12474;SDS011;6302;42.624;23.334;2023-11-18T06:09:40;2.80;;;2.60;;
12474;SDS011;6302;42.624;23.334;2023-11-18T06:12:07;2.50;;;2.30;;
12474;SDS011;6302;42.624;23.334;2023-11-18T06:14:35;2.00;;;1.80;;
12474;SDS011;6302;42.624;23.334;2023-11-18T06:17:02;2.13;;;2.03;;
12474;SDS011;6302;42.624;23.334;2023-11-18T06:19:29;2.00;;;1.90;;
12474;SDS011;6302;42.624;23.334;2023-11-18T06:21:56;2.27;;;2.17;;
12474;SDS011;6302;42.624;23.334;2023-11-18T06:24:23;1.90;;;1.80;;
12474;SDS011;6302;42.624;23.334;2023-11-18T06:26:51;2.23;;;2.13;;
12474;SDS011;6302;42.624;23.334;2023-11-18T06:29:18;1.83;;;1.73;;
12474;SDS011;6302;42.624;23.334;2023-11-18T06:31:44;2.40;;;2.20;;
12474;SDS011;6302;42.624;23.334;2023-11-18T06:34:13;2.10;;;2.00;;
12474;SDS011;6302;42.624;23.334;2023-11-18T06:36:41;1.90;;;1.80;;
12474;SDS011;6302;42.624;23.334;2023-11-18T06:39:08;2.17;;;2.07;;
12474;SDS011;6302;42.624;23.334;2023-11-18T06:41:34;2.13;;;2.03;;
12474;SDS011;6302;42.624;23.334;2023-11-18T06:44:06;2.10;;;2.00;;
12474;SDS011;6302;42.624;23.334;2023-11-18T06:46:37;1.80;;;1.70;;
12474;SDS011;6302;42.624;23.334;2023-11-18T06:49:05;2.00;;;1.90;;
12474;SDS011;6302;42.624;23.334;2023-11-18T06:51:33;2.03;;;1.93;;
12474;SDS011;6302;42.624;23.334;2023-11-18T06:54:03;2.60;;;2.40;;
12474;SDS011;6302;42.624;23.334;2023-11-18T06:56:34;1.83;;;1.73;;
12474;SDS011;6302;42.624;23.334;2023-11-18T06:59:02;1.80;;;1.70;;
12474;SDS011;6302;42.624;23.334;2023-11-18T07:01:31;2.13;;;2.03;;
12474;SDS011;6302;42.624;23.334;2023-11-18T07:03:58;1.60;;;1.50;;
12474;SDS011;6302;42.624;23.334;2023-11-18T07:06:25;1.87;;;1.77;;
12474;SDS011;6302;42.624;23.334;2023-11-18T07:08:53;1.50;;;1.40;;
12474;SDS011;6302;42.624;23.334;2023-11-18T07:11:22;1.67;;;1.57;;
12474;SDS011;6302;42.624;23.334;2023-11-18T07:13:49;1.73;;;1.63;;
12474;SDS011;6302;42.624;23.334;2023-11-18T07:16:21;1.73;;;1.63;;
12474;SDS011;6302;42.624;23.334;2023-11-18T07:18:50;1.60;;;1.60;;
12474;SDS011;6302;42.624;23.334;2023-11-18T07:21:17;1.63;;;1.60;;
12474;SDS011;6302;42.624;23.334;2023-11-18T07:23:44;1.83;;;1.73;;
12474;SDS011;6302;42.624;23.334;2023-11-18T07:26:11;1.63;;;1.63;;
12474;SDS011;6302;42.624;23.334;2023-11-18T07:28:39;1.70;;;1.60;;
12474;SDS011;6302;42.624;23.334;2023-11-18T07:31:06;2.10;;;2.00;;
12474;SDS011;6302;42.624;23.334;2023-11-18T07:33:34;1.40;;;1.40;;
12474;SDS011;6302;42.624;23.334;2023-11-18T07:36:02;2.40;;;2.30;;
12474;SDS011;6302;42.624;23.334;2023-11-18T07:38:31;1.70;;;1.60;;
12474;SDS011;6302;42.624;23.334;2023-11-18T07:41:00;1.73;;;1.63;;
12474;SDS011;6302;42.624;23.334;2023-11-18T07:43:28;1.67;;;1.67;;
12474;SDS011;6302;42.624;23.334;2023-11-18T07:45:55;2.03;;;1.93;;
12474;SDS011;6302;42.624;23.334;2023-11-18T07:48:22;2.00;;;1.90;;
12474;SDS011;6302;42.624;23.334;2023-11-18T07:50:49;2.20;;;2.10;;
12474;SDS011;6302;42.624;23.334;2023-11-18T07:53:17;2.60;;;2.40;;
12474;SDS011;6302;42.624;23.334;2023-11-18T07:55:43;1.80;;;1.70;;
12474;SDS011;6302;42.624;23.334;2023-11-18T07:58:12;1.90;;;1.80;;
12474;SDS011;6302;42.624;23.334;2023-11-18T08:00:39;2.07;;;1.87;;
12474;SDS011;6302;42.624;23.334;2023-11-18T08:03:07;1.77;;;1.67;;
12474;SDS011;6302;42.624;23.334;2023-11-18T08:05:37;2.00;;;1.83;;
12474;SDS011;6302;42.624;23.334;2023-11-18T08:08:04;1.90;;;1.80;;
12474;SDS011;6302;42.624;23.334;2023-11-18T08:10:33;2.63;;;2.43;;
12474;SDS011;6302;42.624;23.334;2023-11-18T08:13:03;1.87;;;1.77;;
12474;SDS011;6302;42.624;23.334;2023-11-18T08:15:30;1.73;;;1.63;;
12474;SDS011;6302;42.624;23.334;2023-11-18T08:17:56;2.00;;;1.90;;
12474;SDS011;6302;42.624;23.334;2023-11-18T08:20:24;1.93;;;1.83;;
12474;SDS011;6302;42.624;23.334;2023-11-18T08:22:51;2.00;;;1.90;;
12474;SDS011;6302;42.624;23.334;2023-11-18T08:25:18;2.10;;;2.00;;
12474;SDS011;6302;42.624;23.334;2023-11-18T08:27:48;1.70;;;1.60;;
12474;SDS011;6302;42.624;23.334;2023-11-18T08:30:15;2.03;;;1.87;;
12474;SDS011;6302;42.624;23.334;2023-11-18T08:32:44;2.10;;;2.00;;
12474;SDS011;6302;42.624;23.334;2023-11-18T08:35:13;3.13;;;2.37;;
12474;SDS011;6302;42.624;23.334;2023-11-18T08:37:40;7.00;;;5.53;;
12474;SDS011;6302;42.624;23.334;2023-11-18T08:40:08;2.10;;;2.00;;
12474;SDS011;6302;42.624;23.334;2023-11-18T08:42:40;2.80;;;2.60;;
12474;SDS011;6302;42.624;23.334;2023-11-18T08:45:14;2.60;;;2.50;;
12474;SDS011;6302;42.624;23.334;2023-11-18T08:47:42;1.70;;;1.60;;
12474;SDS011;6302;42.624;23.334;2023-11-18T08:50:11;3.10;;;1.90;;
12474;SDS011;6302;42.624;23.334;2023-11-18T08:52:39;1.97;;;1.87;;
12474;SDS011;6302;42.624;23.334;2023-11-18T08:55:09;1.67;;;1.57;;
12474;SDS011;6302;42.624;23.334;2023-11-18T08:57:43;1.93;;;1.83;;
12474;SDS011;6302;42.624;23.334;2023-11-18T09:00:19;2.50;;;2.40;;
12474;SDS011;6302;42.624;23.334;2023-11-18T09:03:00;2.17;;;2.07;;
12474;SDS011;6302;42.624;23.334;2023-11-18T09:05:30;1.90;;;1.80;;
12474;SDS011;6302;42.624;23.334;2023-11-18T09:07:57;1.97;;;1.87;;
12474;SDS011;6302;42.624;23.334;2023-11-18T09:10:25;2.00;;;1.90;;
12474;SDS011;6302;42.624;23.334;2023-11-18T09:12:53;1.90;;;1.80;;
12474;SDS011;6302;42.624;23.334;2023-11-18T09:15:21;2.07;;;1.97;;
12474;SDS011;6302;42.624;23.334;2023-11-18T09:17:48;4.23;;;2.07;;
12474;SDS011;6302;42.624;23.334;2023-11-18T09:20:15;2.07;;;1.97;;
12474;SDS011;6302;42.624;23.334;2023-11-18T09:22:47;3.37;;;1.60;;
12474;SDS011;6302;42.624;23.334;2023-11-18T09:25:14;2.03;;;1.93;;
12474;SDS011;6302;42.624;23.334;2023-11-18T09:27:42;2.00;;;1.90;;
12474;SDS011;6302;42.624;23.334;2023-11-18T09:30:10;1.83;;;1.73;;
12474;SDS011;6302;42.624;23.334;2023-11-18T09:32:41;2.10;;;2.00;;
12474;SDS011;6302;42.624;23.334;2023-11-18T09:35:12;3.10;;;1.73;;
12474;SDS011;6302;42.624;23.334;2023-11-18T09:37:39;2.03;;;1.93;;
12474;SDS011;6302;42.624;23.334;2023-11-18T09:40:08;2.40;;;2.30;;
12474;SDS011;6302;42.624;23.334;2023-11-18T09:42:39;2.47;;;2.27;;
12474;SDS011;6302;42.624;23.334;2023-11-18T09:45:09;2.20;;;2.00;;
12474;SDS011;6302;42.624;23.334;2023-11-18T09:47:41;1.90;;;1.80;;
12474;SDS011;6302;42.624;23.334;2023-11-18T09:50:12;2.10;;;2.00;;
12474;SDS011;6302;42.624;23.334;2023-11-18T09:52:47;1.77;;;1.67;;
12474;SDS011;6302;42.624;23.334;2023-11-18T09:55:19;2.20;;;2.10;;
12474;SDS011;6302;42.624;23.334;2023-11-18T09:57:55;2.10;;;1.90;;
12474;SDS011;6302;42.624;23.334;2023-11-18T10:00:29;1.90;;;1.80;;
12474;SDS011;6302;42.624;23.334;2023-11-18T10:03:00;1.90;;;1.80;;
12474;SDS011;6302;42.624;23.334;2023-11-18T10:05:27;2.07;;;1.97;;
12474;SDS011;6302;42.624;23.334;2023-11-18T10:07:55;2.03;;;1.93;;
12474;SDS011;6302;42.624;23.334;2023-11-18T10:10:23;4.27;;;1.97;;
12474;SDS011;6302;42.624;23.334;2023-11-18T10:12:56;2.23;;;2.07;;
12474;SDS011;6302;42.624;23.334;2023-11-18T10:15:24;2.50;;;2.30;;
12474;SDS011;6302;42.624;23.334;2023-11-18T10:17:52;2.07;;;1.97;;
12474;SDS011;6302;42.624;23.334;2023-11-18T10:20:42;2.10;;;2.00;;
12474;SDS011;6302;42.624;23.334;2023-11-18T10:23:12;1.57;;;1.50;;
12474;SDS011;6302;42.624;23.334;2023-11-18T10:25:45;2.43;;;2.27;;
12474;SDS011;6302;42.624;23.334;2023-11-18T10:28:21;2.03;;;1.93;;
12474;SDS011;6302;42.624;23.334;2023-11-18T10:30:48;1.93;;;1.83;;
12474;SDS011;6302;42.624;23.334;2023-11-18T10:33:16;1.83;;;1.73;;
12474;SDS011;6302;42.624;23.334;2023-11-18T10:35:51;3.03;;;1.70;;
12474;SDS011;6302;42.624;23.334;2023-11-18T10:38:20;2.17;;;1.80;;
12474;SDS011;6302;42.624;23.334;2023-11-18T10:40:50;2.00;;;1.90;;
12474;SDS011;6302;42.624;23.334;2023-11-18T10:43:20;1.60;;;1.50;;
12474;SDS011;6302;42.624;23.334;2023-11-18T10:45:49;1.83;;;1.73;;
12474;SDS011;6302;42.624;23.334;2023-11-18T10:48:17;1.63;;;1.53;;
12474;SDS011;6302;42.624;23.334;2023-11-18T10:50:46;2.37;;;1.80;;
12474;SDS011;6302;42.624;23.334;2023-11-18T10:53:16;2.83;;;1.87;;
12474;SDS011;6302;42.624;23.334;2023-11-18T10:55:44;3.73;;;2.13;;
12474;SDS011;6302;42.624;23.334;2023-11-18T10:58:11;2.40;;;2.03;;
12474;SDS011;6302;42.624;23.334;2023-11-18T11:00:45;3.97;;;2.10;;
12474;SDS011;6302;42.624;23.334;2023-11-18T11:03:13;2.00;;;1.90;;
12474;SDS011;6302;42.624;23.334;2023-11-18T11:05:40;1.93;;;1.83;;
12474;SDS011;6302;42.624;23.334;2023-11-18T11:08:09;1.90;;;1.80;;
12474;SDS011;6302;42.624;23.334;2023-11-18T11:10:40;2.80;;;2.40;;
12474;SDS011;6302;42.624;23.334;2023-11-18T11:13:08;5.50;;;3.53;;
12474;SDS011;6302;42.624;23.334;2023-11-18T11:15:45;2.87;;;2.67;;
12474;SDS011;6302;42.624;23.334;2023-11-18T11:18:19;2.90;;;2.60;;
12474;SDS011;6302;42.624;23.334;2023-11-18T11:20:55;2.43;;;2.27;;
12474;SDS011;6302;42.624;23.334;2023-11-18T11:23:30;3.87;;;2.53;;
12474;SDS011;6302;42.624;23.334;2023-11-18T11:26:13;3.23;;;2.93;;
12474;SDS011;6302;42.624;23.334;2023-11-18T11:28:48;2.80;;;2.60;;
12474;SDS011;6302;42.624;23.334;2023-11-18T11:31:23;2.13;;;2.00;;
12474;SDS011;6302;42.624;23.334;2023-11-18T11:33:57;3.23;;;2.50;;
12474;SDS011;6302;42.624;23.334;2023-11-18T11:36:30;2.13;;;1.90;;
12474;SDS011;6302;42.624;23.334;2023-11-18T11:39:04;2.20;;;2.10;;
12474;SDS011;6302;42.624;23.334;2023-11-18T11:41:36;3.03;;;1.90;;
12474;SDS011;6302;42.624;23.334;2023-11-18T11:44:04;2.30;;;2.10;;
12474;SDS011;6302;42.624;23.334;2023-11-18T11:46:33;2.30;;;2.13;;
12474;SDS011;6302;42.624;23.334;2023-11-18T11:49:02;2.63;;;2.43;;
12474;SDS011;6302;42.624;23.334;2023-11-18T11:51:43;2.50;;;2.30;;
12474;SDS011;6302;42.624;23.334;2023-11-18T11:54:16;2.10;;;2.00;;
12474;SDS011;6302;42.624;23.334;2023-11-18T11:56:48;2.20;;;2.10;;
12474;SDS011;6302;42.624;23.334;2023-11-18T11:59:34;1.93;;;1.83;;
12474;SDS011;6302;42.624;23.334;2023-11-18T12:02:02;2.03;;;1.93;;
12474;SDS011;6302;42.624;23.334;2023-11-18T12:04:32;2.27;;;2.07;;
12474;SDS011;6302;42.624;23.334;2023-11-18T12:07:03;1.97;;;1.87;;
12474;SDS011;6302;42.624;23.334;2023-11-18T12:09:31;2.00;;;1.90;;
12474;SDS011;6302;42.624;23.334;2023-11-18T12:12:04;1.87;;;1.60;;
12474;SDS011;6302;42.624;23.334;2023-11-18T12:14:48;2.50;;;1.97;;
12474;SDS011;6302;42.624;23.334;2023-11-18T12:17:17;2.10;;;2.00;;
12474;SDS011;6302;42.624;23.334;2023-11-18T12:19:48;1.97;;;1.87;;
12474;SDS011;6302;42.624;23.334;2023-11-18T12:22:16;2.43;;;2.23;;
12474;SDS011;6302;42.624;23.334;2023-11-18T12:28:09;3.07;;;2.33;;
12474;SDS011;6302;42.624;23.334;2023-11-18T12:30:38;2.60;;;2.40;;
12474;SDS011;6302;42.624;23.334;2023-11-18T12:33:08;2.53;;;1.90;;
12474;SDS011;6302;42.624;23.334;2023-11-18T12:35:38;1.97;;;1.87;;
12474;SDS011;6302;42.624;23.334;2023-11-18T12:38:26;2.10;;;2.00;;
12474;SDS011;6302;42.624;23.334;2023-11-18T12:41:14;2.37;;;2.10;;
12474;SDS011;6302;42.624;23.334;2023-11-18T12:44:01;2.30;;;2.20;;
12474;SDS011;6302;42.624;23.334;2023-11-18T12:46:49;2.27;;;2.17;;
12474;SDS011;6302;42.624;23.334;2023-11-18T12:49:18;1.90;;;1.80;;
12474;SDS011;6302;42.624;23.334;2023-11-18T12:51:49;2.30;;;2.20;;
12474;SDS011;6302;42.624;23.334;2023-11-18T12:54:17;2.10;;;1.90;;
12474;SDS011;6302;42.624;23.334;2023-11-18T12:56:45;2.33;;;2.23;;
12474;SDS011;6302;42.624;23.334;2023-11-18T12:59:15;2.77;;;2.53;;
12474;SDS011;6302;42.624;23.334;2023-11-18T13:01:44;3.00;;;2.43;;
12474;SDS011;6302;42.624;23.334;2023-11-18T13:04:17;2.53;;;2.40;;
12474;SDS011;6302;42.624;23.334;2023-11-18T13:06:46;2.30;;;2.20;;
12474;SDS011;6302;42.624;23.334;2023-11-18T13:09:14;3.10;;;2.90;;
12474;SDS011;6302;42.624;23.334;2023-11-18T13:11:51;3.17;;;2.80;;
12474;SDS011;6302;42.624;23.334;2023-11-18T13:14:22;2.30;;;2.20;;
12474;SDS011;6302;42.624;23.334;2023-11-18T13:16:51;2.13;;;2.03;;
12474;SDS011;6302;42.624;23.334;2023-11-18T13:19:25;2.40;;;2.20;;
12474;SDS011;6302;42.624;23.334;2023-11-18T13:21:56;2.60;;;2.40;;
12474;SDS011;6302;42.624;23.334;2023-11-18T13:24:24;3.10;;;2.90;;
12474;SDS011;6302;42.624;23.334;2023-11-18T13:26:51;4.20;;;3.80;;
12474;SDS011;6302;42.624;23.334;2023-11-18T13:29:20;2.60;;;2.40;;
12474;SDS011;6302;42.624;23.334;2023-11-18T13:31:49;2.20;;;2.10;;
12474;SDS011;6302;42.624;23.334;2023-11-18T13:34:17;4.33;;;4.03;;
12474;SDS011;6302;42.624;23.334;2023-11-18T13:36:45;2.77;;;2.57;;
12474;SDS011;6302;42.624;23.334;2023-11-18T13:39:16;3.77;;;3.47;;
12474;SDS011;6302;42.624;23.334;2023-11-18T13:41:43;2.93;;;2.60;;
12474;SDS011;6302;42.624;23.334;2023-11-18T13:44:11;2.90;;;2.70;;
12474;SDS011;6302;42.624;23.334;2023-11-18T13:46:40;6.70;;;2.50;;
12474;SDS011;6302;42.624;23.334;2023-11-18T13:49:08;2.90;;;2.70;;
12474;SDS011;6302;42.624;23.334;2023-11-18T13:51:34;4.40;;;3.23;;
12474;SDS011;6302;42.624;23.334;2023-11-18T13:54:02;2.90;;;2.70;;
12474;SDS011;6302;42.624;23.334;2023-11-18T13:56:30;3.03;;;2.80;;
12474;SDS011;6302;42.624;23.334;2023-11-18T13:58:57;2.90;;;2.70;;
12474;SDS011;6302;42.624;23.334;2023-11-18T14:01:24;2.63;;;2.53;;
12474;SDS011;6302;42.624;23.334;2023-11-18T14:03:54;2.83;;;2.63;;
12474;SDS011;6302;42.624;23.334;2023-11-18T14:06:26;3.13;;;2.93;;
12474;SDS011;6302;42.624;23.334;2023-11-18T14:08:53;3.37;;;3.17;;
12474;SDS011;6302;42.624;23.334;2023-11-18T14:11:20;3.20;;;2.90;;
12474;SDS011;6302;42.624;23.334;2023-11-18T14:13:47;3.00;;;2.80;;
12474;SDS011;6302;42.624;23.334;2023-11-18T14:16:14;3.20;;;3.00;;
12474;SDS011;6302;42.624;23.334;2023-11-18T14:18:42;3.93;;;3.60;;
12474;SDS011;6302;42.624;23.334;2023-11-18T14:21:10;4.07;;;3.43;;
12474;SDS011;6302;42.624;23.334;2023-11-18T14:23:39;2.93;;;2.43;;
12474;SDS011;6302;42.624;23.334;2023-11-18T14:26:06;3.57;;;3.27;;
12474;SDS011;6302;42.624;23.334;2023-11-18T14:28:34;3.70;;;3.40;;
12474;SDS011;6302;42.624;23.334;2023-11-18T14:31:01;3.40;;;3.10;;
12474;SDS011;6302;42.624;23.334;2023-11-18T14:33:29;3.37;;;3.13;;
12474;SDS011;6302;42.624;23.334;2023-11-18T14:35:59;3.50;;;3.20;;
12474;SDS011;6302;42.624;23.334;2023-11-18T14:38:27;3.33;;;3.13;;
12474;SDS011;6302;42.624;23.334;2023-11-18T14:40:53;3.67;;;2.90;;
12474;SDS011;6302;42.624;23.334;2023-11-18T14:43:20;4.00;;;3.43;;
12474;SDS011;6302;42.624;23.334;2023-11-18T14:45:47;4.47;;;4.07;;
12474;SDS011;6302;42.624;23.334;2023-11-18T14:48:14;3.90;;;3.60;;
12474;SDS011;6302;42.624;23.334;2023-11-18T14:50:40;3.73;;;3.37;;
12474;SDS011;6302;42.624;23.334;2023-11-18T14:53:07;3.63;;;3.43;;
12474;SDS011;6302;42.624;23.334;2023-11-18T14:55:35;3.23;;;3.03;;
12474;SDS011;6302;42.624;23.334;2023-11-18T14:58:03;3.53;;;3.33;;
12474;SDS011;6302;42.624;23.334;2023-11-18T15:00:32;4.13;;;3.00;;
12474;SDS011;6302;42.624;23.334;2023-11-18T15:02:59;3.97;;;3.67;;